sensor_id;sensor_type;location;lat;lon;timestamp;P1;durP1;ratioP1;P2;durP2;ratioP2
63286;SDS011;49410;55.708;37.522;2022-09-13T00:00:57;10.60;;;5.40;;
63286;SDS011;49410;55.708;37.522;2022-09-13T00:03:23;12.45;;;5.43;;
63286;SDS011;49410;55.708;37.522;2022-09-13T00:05:50;11.07;;;5.05;;
63286;SDS011;49410;55.708;37.522;2022-09-13T00:08:16;12.90;;;4.90;;
63286;SDS011;49410;55.708;37.522;2022-09-13T00:10:42;10.10;;;4.70;;
63286;SDS011;49410;55.708;37.522;2022-09-13T00:13:09;12.77;;;6.07;;
63286;SDS011;49410;55.708;37.522;2022-09-13T00:15:36;13.75;;;5.75;;
63286;SDS011;49410;55.708;37.522;2022-09-13T00:18:08;11.48;;;5.72;;
63286;SDS011;49410;55.708;37.522;2022-09-13T00:20:33;9.93;;;4.93;;
63286;SDS011;49410;55.708;37.522;2022-09-13T00:22:58;13.65;;;5.88;;
63286;SDS011;49410;55.708;37.522;2022-09-13T00:25:24;10.05;;;5.18;;
63286;SDS011;49410;55.708;37.522;2022-09-13T00:27:49;11.07;;;5.68;;
63286;SDS011;49410;55.708;37.522;2022-09-13T00:30:15;13.13;;;5.57;;
63286;SDS011;49410;55.708;37.522;2022-09-13T00:32:40;11.40;;;4.90;;
63286;SDS011;49410;55.708;37.522;2022-09-13T00:35:06;11.73;;;5.10;;
63286;SDS011;49410;55.708;37.522;2022-09-13T00:37:32;11.57;;;5.75;;
63286;SDS011;49410;55.708;37.522;2022-09-13T00:40:01;12.65;;;5.00;;
63286;SDS011;49410;55.708;37.522;2022-09-13T00:42:28;12.50;;;5.50;;
63286;SDS011;49410;55.708;37.522;2022-09-13T00:47:38;10.27;;;4.68;;
63286;SDS011;49410;55.708;37.522;2022-09-13T00:53:06;11.52;;;5.22;;
63286;SDS011;49410;55.708;37.522;2022-09-13T01:00:58;10.80;;;4.88;;
63286;SDS011;49410;55.708;37.522;2022-09-13T01:03:28;12.20;;;4.90;;
63286;SDS011;49410;55.708;37.522;2022-09-13T01:06:02;10.07;;;5.10;;
63286;SDS011;49410;55.708;37.522;2022-09-13T01:08:35;10.27;;;5.63;;
63286;SDS011;49410;55.708;37.522;2022-09-13T01:11:04;9.23;;;4.47;;
63286;SDS011;49410;55.708;37.522;2022-09-13T01:13:35;11.98;;;4.88;;
63286;SDS011;49410;55.708;37.522;2022-09-13T01:16:03;11.50;;;5.95;;
63286;SDS011;49410;55.708;37.522;2022-09-13T01:18:28;13.85;;;5.35;;
63286;SDS011;49410;55.708;37.522;2022-09-13T01:30:58;13.63;;;6.20;;
63286;SDS011;49410;55.708;37.522;2022-09-13T01:33:28;11.63;;;5.35;;
63286;SDS011;49410;55.708;37.522;2022-09-13T01:36:17;12.95;;;4.88;;
63286;SDS011;49410;55.708;37.522;2022-09-13T01:55:43;13.68;;;5.60;;
63286;SDS011;49410;55.708;37.522;2022-09-13T02:00:51;10.07;;;5.00;;
63286;SDS011;49410;55.708;37.522;2022-09-13T02:03:23;9.95;;;5.32;;
63286;SDS011;49410;55.708;37.522;2022-09-13T02:05:59;11.38;;;5.55;;
63286;SDS011;49410;55.708;37.522;2022-09-13T02:08:40;10.25;;;4.90;;
63286;SDS011;49410;55.708;37.522;2022-09-13T02:11:12;10.63;;;4.65;;
63286;SDS011;49410;55.708;37.522;2022-09-13T02:13:45;10.85;;;5.38;;
63286;SDS011;49410;55.708;37.522;2022-09-13T02:16:15;12.65;;;5.35;;
63286;SDS011;49410;55.708;37.522;2022-09-13T02:18:46;10.75;;;4.93;;
63286;SDS011;49410;55.708;37.522;2022-09-13T02:21:17;13.15;;;6.00;;
63286;SDS011;49410;55.708;37.522;2022-09-13T02:26:25;12.57;;;5.60;;
63286;SDS011;49410;55.708;37.522;2022-09-13T02:28:54;15.63;;;7.05;;
63286;SDS011;49410;55.708;37.522;2022-09-13T02:31:26;12.80;;;6.40;;
63286;SDS011;49410;55.708;37.522;2022-09-13T02:33:57;12.98;;;5.85;;
63286;SDS011;49410;55.708;37.522;2022-09-13T02:36:28;13.13;;;5.95;;
63286;SDS011;49410;55.708;37.522;2022-09-13T02:39:16;15.30;;;7.75;;
63286;SDS011;49410;55.708;37.522;2022-09-13T02:44:45;11.68;;;5.70;;
63286;SDS011;49410;55.708;37.522;2022-09-13T02:47:18;13.57;;;6.25;;
63286;SDS011;49410;55.708;37.522;2022-09-13T02:52:49;14.65;;;5.80;;
63286;SDS011;49410;55.708;37.522;2022-09-13T03:00:45;14.15;;;6.07;;
63286;SDS011;49410;55.708;37.522;2022-09-13T03:03:12;15.02;;;6.88;;
63286;SDS011;49410;55.708;37.522;2022-09-13T03:05:40;12.77;;;6.05;;
63286;SDS011;49410;55.708;37.522;2022-09-13T03:08:07;11.50;;;5.35;;
63286;SDS011;49410;55.708;37.522;2022-09-13T03:10:50;13.43;;;5.90;;
63286;SDS011;49410;55.708;37.522;2022-09-13T03:13:47;11.93;;;5.50;;
63286;SDS011;49410;55.708;37.522;2022-09-13T03:19:29;14.27;;;5.95;;
63286;SDS011;49410;55.708;37.522;2022-09-13T03:24:48;12.13;;;6.18;;
63286;SDS011;49410;55.708;37.522;2022-09-13T03:38:15;15.05;;;7.20;;
63286;SDS011;49410;55.708;37.522;2022-09-13T03:43:29;15.63;;;6.43;;
63286;SDS011;49410;55.708;37.522;2022-09-13T03:46:43;13.63;;;6.25;;
63286;SDS011;49410;55.708;37.522;2022-09-13T03:49:11;13.45;;;6.15;;
63286;SDS011;49410;55.708;37.522;2022-09-13T03:51:39;13.20;;;6.15;;
63286;SDS011;49410;55.708;37.522;2022-09-13T03:54:13;12.82;;;5.78;;
63286;SDS011;49410;55.708;37.522;2022-09-13T03:57:30;16.38;;;6.13;;
63286;SDS011;49410;55.708;37.522;2022-09-13T03:59:38;12.43;;;6.10;;
63286;SDS011;49410;55.708;37.522;2022-09-13T04:02:07;14.15;;;7.53;;
63286;SDS011;49410;55.708;37.522;2022-09-13T04:04:39;12.75;;;6.63;;
63286;SDS011;49410;55.708;37.522;2022-09-13T04:07:07;13.27;;;6.10;;
63286;SDS011;49410;55.708;37.522;2022-09-13T04:09:33;13.77;;;6.70;;
63286;SDS011;49410;55.708;37.522;2022-09-13T04:11:59;12.65;;;6.60;;
63286;SDS011;49410;55.708;37.522;2022-09-13T04:14:25;11.45;;;6.30;;
63286;SDS011;49410;55.708;37.522;2022-09-13T04:16:52;13.80;;;6.13;;
63286;SDS011;49410;55.708;37.522;2022-09-13T04:19:18;13.68;;;5.78;;
63286;SDS011;49410;55.708;37.522;2022-09-13T04:21:45;14.02;;;7.00;;
63286;SDS011;49410;55.708;37.522;2022-09-13T04:24:12;14.40;;;5.95;;
63286;SDS011;49410;55.708;37.522;2022-09-13T04:26:39;12.63;;;6.35;;
63286;SDS011;49410;55.708;37.522;2022-09-13T04:29:04;11.98;;;5.93;;
63286;SDS011;49410;55.708;37.522;2022-09-13T04:31:30;12.48;;;6.00;;
63286;SDS011;49410;55.708;37.522;2022-09-13T04:33:55;17.08;;;6.35;;
63286;SDS011;49410;55.708;37.522;2022-09-13T04:36:21;11.77;;;6.28;;
63286;SDS011;49410;55.708;37.522;2022-09-13T04:38:47;11.82;;;6.22;;
63286;SDS011;49410;55.708;37.522;2022-09-13T04:41:12;14.43;;;6.75;;
63286;SDS011;49410;55.708;37.522;2022-09-13T04:43:38;14.60;;;6.30;;
63286;SDS011;49410;55.708;37.522;2022-09-13T04:46:03;13.43;;;6.53;;
63286;SDS011;49410;55.708;37.522;2022-09-13T04:48:29;12.68;;;6.40;;
63286;SDS011;49410;55.708;37.522;2022-09-13T04:51:04;12.93;;;6.40;;
63286;SDS011;49410;55.708;37.522;2022-09-13T04:53:30;11.98;;;6.55;;
63286;SDS011;49410;55.708;37.522;2022-09-13T04:55:59;13.68;;;6.78;;
63286;SDS011;49410;55.708;37.522;2022-09-13T04:58:28;17.88;;;7.80;;
63286;SDS011;49410;55.708;37.522;2022-09-13T05:00:59;15.70;;;6.80;;
63286;SDS011;49410;55.708;37.522;2022-09-13T05:03:25;13.15;;;7.15;;
63286;SDS011;49410;55.708;37.522;2022-09-13T05:05:54;13.27;;;7.00;;
63286;SDS011;49410;55.708;37.522;2022-09-13T05:08:19;13.88;;;7.07;;
63286;SDS011;49410;55.708;37.522;2022-09-13T05:10:45;16.45;;;6.57;;
63286;SDS011;49410;55.708;37.522;2022-09-13T05:16:31;14.73;;;7.53;;
63286;SDS011;49410;55.708;37.522;2022-09-13T05:18:57;16.17;;;6.95;;
63286;SDS011;49410;55.708;37.522;2022-09-13T05:21:24;19.90;;;6.82;;
63286;SDS011;49410;55.708;37.522;2022-09-13T05:23:52;16.17;;;6.93;;
63286;SDS011;49410;55.708;37.522;2022-09-13T05:26:18;14.48;;;7.10;;
63286;SDS011;49410;55.708;37.522;2022-09-13T05:28:45;12.73;;;6.78;;
63286;SDS011;49410;55.708;37.522;2022-09-13T05:31:12;16.48;;;6.70;;
63286;SDS011;49410;55.708;37.522;2022-09-13T05:33:40;15.13;;;6.97;;
63286;SDS011;49410;55.708;37.522;2022-09-13T05:36:06;13.70;;;6.85;;
63286;SDS011;49410;55.708;37.522;2022-09-13T05:38:32;13.48;;;6.95;;
63286;SDS011;49410;55.708;37.522;2022-09-13T05:41:01;13.63;;;7.57;;
63286;SDS011;49410;55.708;37.522;2022-09-13T05:43:32;16.20;;;7.28;;
63286;SDS011;49410;55.708;37.522;2022-09-13T05:46:00;17.98;;;7.63;;
63286;SDS011;49410;55.708;37.522;2022-09-13T05:48:28;15.60;;;7.72;;
63286;SDS011;49410;55.708;37.522;2022-09-13T05:50:54;14.05;;;7.68;;
63286;SDS011;49410;55.708;37.522;2022-09-13T05:53:20;15.45;;;7.63;;
63286;SDS011;49410;55.708;37.522;2022-09-13T05:55:46;15.68;;;7.07;;
63286;SDS011;49410;55.708;37.522;2022-09-13T05:58:11;18.13;;;7.03;;
63286;SDS011;49410;55.708;37.522;2022-09-13T06:00:37;19.95;;;8.32;;
63286;SDS011;49410;55.708;37.522;2022-09-13T06:03:02;16.48;;;8.10;;
63286;SDS011;49410;55.708;37.522;2022-09-13T06:05:28;14.15;;;6.10;;
63286;SDS011;49410;55.708;37.522;2022-09-13T06:07:53;15.02;;;6.45;;
63286;SDS011;49410;55.708;37.522;2022-09-13T06:10:19;15.27;;;6.95;;
63286;SDS011;49410;55.708;37.522;2022-09-13T06:12:44;14.18;;;7.30;;
63286;SDS011;49410;55.708;37.522;2022-09-13T06:15:11;13.52;;;6.40;;
63286;SDS011;49410;55.708;37.522;2022-09-13T06:17:37;16.60;;;7.43;;
63286;SDS011;49410;55.708;37.522;2022-09-13T06:20:03;16.98;;;6.95;;
63286;SDS011;49410;55.708;37.522;2022-09-13T06:22:29;14.68;;;6.88;;
63286;SDS011;49410;55.708;37.522;2022-09-13T06:24:57;18.75;;;7.72;;
63286;SDS011;49410;55.708;37.522;2022-09-13T06:27:23;15.00;;;8.15;;
63286;SDS011;49410;55.708;37.522;2022-09-13T06:29:49;12.90;;;6.65;;
63286;SDS011;49410;55.708;37.522;2022-09-13T06:32:14;15.50;;;6.43;;
63286;SDS011;49410;55.708;37.522;2022-09-13T06:34:40;15.48;;;6.78;;
63286;SDS011;49410;55.708;37.522;2022-09-13T06:37:06;15.93;;;7.35;;
63286;SDS011;49410;55.708;37.522;2022-09-13T06:39:32;15.43;;;7.20;;
63286;SDS011;49410;55.708;37.522;2022-09-13T06:41:58;12.88;;;6.85;;
63286;SDS011;49410;55.708;37.522;2022-09-13T06:44:24;20.38;;;6.78;;
63286;SDS011;49410;55.708;37.522;2022-09-13T06:46:49;17.00;;;7.15;;
63286;SDS011;49410;55.708;37.522;2022-09-13T06:49:15;14.88;;;6.93;;
63286;SDS011;49410;55.708;37.522;2022-09-13T06:51:40;12.93;;;6.45;;
63286;SDS011;49410;55.708;37.522;2022-09-13T06:54:06;17.13;;;7.00;;
63286;SDS011;49410;55.708;37.522;2022-09-13T06:56:33;19.92;;;7.13;;
63286;SDS011;49410;55.708;37.522;2022-09-13T06:59:01;14.10;;;7.20;;
63286;SDS011;49410;55.708;37.522;2022-09-13T07:01:32;19.52;;;6.90;;
63286;SDS011;49410;55.708;37.522;2022-09-13T07:04:00;15.98;;;6.78;;
63286;SDS011;49410;55.708;37.522;2022-09-13T07:06:32;17.00;;;6.45;;
63286;SDS011;49410;55.708;37.522;2022-09-13T07:09:00;18.85;;;6.68;;
63286;SDS011;49410;55.708;37.522;2022-09-13T07:11:30;16.13;;;6.45;;
63286;SDS011;49410;55.708;37.522;2022-09-13T07:13:57;17.95;;;6.75;;
63286;SDS011;49410;55.708;37.522;2022-09-13T07:16:25;12.75;;;6.13;;
63286;SDS011;49410;55.708;37.522;2022-09-13T07:18:53;14.38;;;6.10;;
63286;SDS011;49410;55.708;37.522;2022-09-13T07:21:20;12.25;;;6.15;;
63286;SDS011;49410;55.708;37.522;2022-09-13T07:23:46;16.80;;;6.35;;
63286;SDS011;49410;55.708;37.522;2022-09-13T07:26:12;18.75;;;6.57;;
63286;SDS011;49410;55.708;37.522;2022-09-13T07:28:38;21.73;;;7.15;;
63286;SDS011;49410;55.708;37.522;2022-09-13T07:33:35;14.25;;;6.25;;
63286;SDS011;49410;55.708;37.522;2022-09-13T07:36:02;16.05;;;6.03;;
63286;SDS011;49410;55.708;37.522;2022-09-13T07:38:34;17.15;;;6.65;;
63286;SDS011;49410;55.708;37.522;2022-09-13T07:41:01;12.77;;;6.60;;
63286;SDS011;49410;55.708;37.522;2022-09-13T07:43:30;16.58;;;6.43;;
63286;SDS011;49410;55.708;37.522;2022-09-13T07:45:58;22.65;;;6.65;;
63286;SDS011;49410;55.708;37.522;2022-09-13T07:48:25;16.58;;;6.45;;
63286;SDS011;49410;55.708;37.522;2022-09-13T07:50:56;12.98;;;6.30;;
63286;SDS011;49410;55.708;37.522;2022-09-13T07:53:21;13.35;;;6.25;;
63286;SDS011;49410;55.708;37.522;2022-09-13T07:55:47;18.85;;;5.90;;
63286;SDS011;49410;55.708;37.522;2022-09-13T07:58:12;12.43;;;5.20;;
63286;SDS011;49410;55.708;37.522;2022-09-13T08:00:37;10.13;;;4.60;;
63286;SDS011;49410;55.708;37.522;2022-09-13T08:03:03;10.93;;;4.97;;
63286;SDS011;49410;55.708;37.522;2022-09-13T08:05:28;10.55;;;4.88;;
63286;SDS011;49410;55.708;37.522;2022-09-13T08:07:53;14.48;;;5.32;;
63286;SDS011;49410;55.708;37.522;2022-09-13T08:10:19;10.50;;;5.20;;
63286;SDS011;49410;55.708;37.522;2022-09-13T08:12:44;12.45;;;5.18;;
63286;SDS011;49410;55.708;37.522;2022-09-13T08:15:09;14.10;;;5.43;;
63286;SDS011;49410;55.708;37.522;2022-09-13T08:17:35;9.90;;;4.97;;
63286;SDS011;49410;55.708;37.522;2022-09-13T08:20:00;12.75;;;5.32;;
63286;SDS011;49410;55.708;37.522;2022-09-13T08:22:25;14.88;;;5.78;;
63286;SDS011;49410;55.708;37.522;2022-09-13T08:24:51;12.55;;;5.60;;
63286;SDS011;49410;55.708;37.522;2022-09-13T08:27:16;13.65;;;5.20;;
63286;SDS011;49410;55.708;37.522;2022-09-13T08:29:41;9.85;;;4.63;;
63286;SDS011;49410;55.708;37.522;2022-09-13T08:32:07;15.60;;;5.50;;
63286;SDS011;49410;55.708;37.522;2022-09-13T08:34:32;11.93;;;4.78;;
63286;SDS011;49410;55.708;37.522;2022-09-13T08:36:57;9.70;;;4.63;;
63286;SDS011;49410;55.708;37.522;2022-09-13T08:39:23;10.45;;;4.53;;
63286;SDS011;49410;55.708;37.522;2022-09-13T08:41:58;13.60;;;4.68;;
63286;SDS011;49410;55.708;37.522;2022-09-13T08:44:29;11.38;;;4.13;;
63286;SDS011;49410;55.708;37.522;2022-09-13T08:49:30;15.73;;;4.30;;
63286;SDS011;49410;55.708;37.522;2022-09-13T08:54:42;8.05;;;3.70;;
63286;SDS011;49410;55.708;37.522;2022-09-13T09:04:44;10.57;;;4.27;;
63286;SDS011;49410;55.708;37.522;2022-09-13T09:09:42;9.50;;;3.58;;
63286;SDS011;49410;55.708;37.522;2022-09-13T09:15:02;6.55;;;3.08;;
63286;SDS011;49410;55.708;37.522;2022-09-13T09:17:31;6.57;;;3.03;;
63286;SDS011;49410;55.708;37.522;2022-09-13T09:20:15;11.82;;;3.25;;
63286;SDS011;49410;55.708;37.522;2022-09-13T09:25:08;10.53;;;3.00;;
63286;SDS011;49410;55.708;37.522;2022-09-13T09:27:35;8.30;;;2.83;;
63286;SDS011;49410;55.708;37.522;2022-09-13T09:30:00;6.68;;;2.60;;
63286;SDS011;49410;55.708;37.522;2022-09-13T09:38:05;5.03;;;2.30;;
63286;SDS011;49410;55.708;37.522;2022-09-13T09:40:32;8.77;;;2.65;;
63286;SDS011;49410;55.708;37.522;2022-09-13T09:42:59;8.95;;;2.60;;
63286;SDS011;49410;55.708;37.522;2022-09-13T09:45:28;5.80;;;2.50;;
63286;SDS011;49410;55.708;37.522;2022-09-13T09:47:54;6.55;;;2.50;;
63286;SDS011;49410;55.708;37.522;2022-09-13T09:50:22;5.18;;;2.20;;
63286;SDS011;49410;55.708;37.522;2022-09-13T09:52:52;6.40;;;2.28;;
63286;SDS011;49410;55.708;37.522;2022-09-13T09:57:50;5.80;;;2.45;;
63286;SDS011;49410;55.708;37.522;2022-09-13T10:00:16;5.78;;;2.35;;
63286;SDS011;49410;55.708;37.522;2022-09-13T10:02:42;8.63;;;2.50;;
63286;SDS011;49410;55.708;37.522;2022-09-13T10:05:08;8.48;;;2.60;;
63286;SDS011;49410;55.708;37.522;2022-09-13T10:07:33;5.47;;;2.50;;
63286;SDS011;49410;55.708;37.522;2022-09-13T10:12:30;7.25;;;2.17;;
63286;SDS011;49410;55.708;37.522;2022-09-13T10:15:17;7.90;;;2.67;;
63286;SDS011;49410;55.708;37.522;2022-09-13T10:20:30;5.53;;;1.75;;
63286;SDS011;49410;55.708;37.522;2022-09-13T10:23:37;6.22;;;2.22;;
63286;SDS011;49410;55.708;37.522;2022-09-13T10:28:43;4.57;;;1.60;;
63286;SDS011;49410;55.708;37.522;2022-09-13T10:31:11;4.65;;;1.80;;
63286;SDS011;49410;55.708;37.522;2022-09-13T10:33:41;6.65;;;1.60;;
63286;SDS011;49410;55.708;37.522;2022-09-13T10:38:37;4.25;;;1.80;;
63286;SDS011;49410;55.708;37.522;2022-09-13T10:41:04;4.53;;;1.67;;
63286;SDS011;49410;55.708;37.522;2022-09-13T10:43:30;6.25;;;1.70;;
63286;SDS011;49410;55.708;37.522;2022-09-13T10:45:56;6.47;;;2.10;;
63286;SDS011;49410;55.708;37.522;2022-09-13T10:48:22;6.07;;;1.90;;
63286;SDS011;49410;55.708;37.522;2022-09-13T10:53:30;4.65;;;1.60;;
63286;SDS011;49410;55.708;37.522;2022-09-13T10:55:56;4.75;;;1.50;;
63286;SDS011;49410;55.708;37.522;2022-09-13T10:58:21;15.27;;;2.88;;
63286;SDS011;49410;55.708;37.522;2022-09-13T11:06:35;6.28;;;1.70;;
63286;SDS011;49410;55.708;37.522;2022-09-13T11:09:15;5.43;;;1.80;;
63286;SDS011;49410;55.708;37.522;2022-09-13T11:11:53;6.20;;;1.80;;
63286;SDS011;49410;55.708;37.522;2022-09-13T11:25:13;5.05;;;2.03;;
63286;SDS011;49410;55.708;37.522;2022-09-13T11:30:31;5.95;;;1.80;;
63286;SDS011;49410;55.708;37.522;2022-09-13T11:51:49;5.20;;;1.80;;
63286;SDS011;49410;55.708;37.522;2022-09-13T11:57:15;7.13;;;2.03;;
63286;SDS011;49410;55.708;37.522;2022-09-13T11:59:53;6.22;;;2.17;;
63286;SDS011;49410;55.708;37.522;2022-09-13T12:02:44;6.97;;;1.85;;
63286;SDS011;49410;55.708;37.522;2022-09-13T12:05:33;8.00;;;2.55;;
63286;SDS011;49410;55.708;37.522;2022-09-13T12:08:50;6.35;;;2.10;;
63286;SDS011;49410;55.708;37.522;2022-09-13T12:13:41;7.68;;;2.17;;
63286;SDS011;49410;55.708;37.522;2022-09-13T12:16:11;9.40;;;2.20;;
63286;SDS011;49410;55.708;37.522;2022-09-13T12:18:48;5.97;;;2.00;;
63286;SDS011;49410;55.708;37.522;2022-09-13T12:21:20;5.60;;;1.77;;
63286;SDS011;49410;55.708;37.522;2022-09-13T12:26:30;5.68;;;1.90;;
63286;SDS011;49410;55.708;37.522;2022-09-13T12:29:07;6.15;;;2.10;;
63286;SDS011;49410;55.708;37.522;2022-09-13T12:31:43;5.90;;;2.05;;
63286;SDS011;49410;55.708;37.522;2022-09-13T12:34:12;7.25;;;1.98;;
63286;SDS011;49410;55.708;37.522;2022-09-13T12:45:19;5.68;;;2.17;;
63286;SDS011;49410;55.708;37.522;2022-09-13T12:58:39;5.72;;;2.00;;
63286;SDS011;49410;55.708;37.522;2022-09-13T13:01:20;11.30;;;2.75;;
63286;SDS011;49410;55.708;37.522;2022-09-13T13:06:46;7.72;;;1.90;;
63286;SDS011;49410;55.708;37.522;2022-09-13T13:09:36;7.93;;;2.15;;
63286;SDS011;49410;55.708;37.522;2022-09-13T13:12:10;11.50;;;2.10;;
63286;SDS011;49410;55.708;37.522;2022-09-13T13:14:51;8.07;;;2.03;;
63286;SDS011;49410;55.708;37.522;2022-09-13T13:31:09;6.45;;;2.13;;
63286;SDS011;49410;55.708;37.522;2022-09-13T13:36:29;8.55;;;1.95;;
63286;SDS011;49410;55.708;37.522;2022-09-13T14:05:07;8.88;;;2.00;;
63286;SDS011;49410;55.708;37.522;2022-09-13T14:13:25;10.45;;;2.47;;
63286;SDS011;49410;55.708;37.522;2022-09-13T14:16:29;8.82;;;2.30;;
63286;SDS011;49410;55.708;37.522;2022-09-13T14:19:11;6.70;;;2.30;;
63286;SDS011;49410;55.708;37.522;2022-09-13T14:22:14;5.55;;;2.15;;
63286;SDS011;49410;55.708;37.522;2022-09-13T14:24:44;7.00;;;2.60;;
63286;SDS011;49410;55.708;37.522;2022-09-13T14:27:18;10.50;;;2.42;;
63286;SDS011;49410;55.708;37.522;2022-09-13T14:29:54;8.15;;;2.20;;
63286;SDS011;49410;55.708;37.522;2022-09-13T14:32:24;6.95;;;2.40;;
63286;SDS011;49410;55.708;37.522;2022-09-13T14:35:02;8.43;;;2.35;;
63286;SDS011;49410;55.708;37.522;2022-09-13T14:37:35;6.18;;;2.47;;
63286;SDS011;49410;55.708;37.522;2022-09-13T14:42:37;6.68;;;2.25;;
63286;SDS011;49410;55.708;37.522;2022-09-13T14:45:11;8.93;;;2.17;;
63286;SDS011;49410;55.708;37.522;2022-09-13T14:50:33;6.57;;;2.38;;
63286;SDS011;49410;55.708;37.522;2022-09-13T14:53:05;6.45;;;2.33;;
63286;SDS011;49410;55.708;37.522;2022-09-13T14:55:37;7.63;;;2.28;;
63286;SDS011;49410;55.708;37.522;2022-09-13T14:58:17;6.38;;;2.38;;
63286;SDS011;49410;55.708;37.522;2022-09-13T15:00:49;5.47;;;2.10;;
63286;SDS011;49410;55.708;37.522;2022-09-13T15:03:19;6.68;;;1.88;;
63286;SDS011;49410;55.708;37.522;2022-09-13T15:06:03;6.00;;;2.28;;
63286;SDS011;49410;55.708;37.522;2022-09-13T15:10:59;5.63;;;2.20;;
63286;SDS011;49410;55.708;37.522;2022-09-13T15:13:26;11.90;;;2.50;;
63286;SDS011;49410;55.708;37.522;2022-09-13T15:15:52;8.52;;;2.22;;
63286;SDS011;49410;55.708;37.522;2022-09-13T15:23:26;8.00;;;2.20;;
63286;SDS011;49410;55.708;37.522;2022-09-13T15:26:11;14.35;;;2.75;;
63286;SDS011;49410;55.708;37.522;2022-09-13T15:31:09;6.80;;;2.15;;
63286;SDS011;49410;55.708;37.522;2022-09-13T15:33:36;5.60;;;2.20;;
63286;SDS011;49410;55.708;37.522;2022-09-13T15:36:12;9.05;;;2.55;;
63286;SDS011;49410;55.708;37.522;2022-09-13T15:41:32;5.68;;;2.08;;
63286;SDS011;49410;55.708;37.522;2022-09-13T15:43:59;6.57;;;2.40;;
63286;SDS011;49410;55.708;37.522;2022-09-13T15:46:26;6.68;;;2.38;;
63286;SDS011;49410;55.708;37.522;2022-09-13T15:48:58;6.60;;;2.63;;
63286;SDS011;49410;55.708;37.522;2022-09-13T15:51:26;5.90;;;2.42;;
63286;SDS011;49410;55.708;37.522;2022-09-13T15:53:52;7.13;;;2.17;;
63286;SDS011;49410;55.708;37.522;2022-09-13T15:59:13;5.65;;;2.40;;
63286;SDS011;49410;55.708;37.522;2022-09-13T16:01:41;6.25;;;2.80;;
63286;SDS011;49410;55.708;37.522;2022-09-13T16:04:07;12.63;;;2.65;;
63286;SDS011;49410;55.708;37.522;2022-09-13T16:06:33;6.75;;;2.30;;
63286;SDS011;49410;55.708;37.522;2022-09-13T16:08:59;5.68;;;2.22;;
63286;SDS011;49410;55.708;37.522;2022-09-13T16:11:26;6.25;;;2.53;;
63286;SDS011;49410;55.708;37.522;2022-09-13T16:13:52;8.18;;;2.83;;
63286;SDS011;49410;55.708;37.522;2022-09-13T16:16:18;6.50;;;2.78;;
63286;SDS011;49410;55.708;37.522;2022-09-13T16:18:43;6.40;;;2.67;;
63286;SDS011;49410;55.708;37.522;2022-09-13T16:21:09;4.60;;;2.22;;
63286;SDS011;49410;55.708;37.522;2022-09-13T16:23:34;5.32;;;2.30;;
63286;SDS011;49410;55.708;37.522;2022-09-13T16:26:00;6.03;;;2.75;;
63286;SDS011;49410;55.708;37.522;2022-09-13T16:28:26;6.57;;;2.67;;
63286;SDS011;49410;55.708;37.522;2022-09-13T16:30:52;7.32;;;2.53;;
63286;SDS011;49410;55.708;37.522;2022-09-13T16:33:19;6.97;;;2.58;;
63286;SDS011;49410;55.708;37.522;2022-09-13T16:35:44;5.53;;;2.53;;
63286;SDS011;49410;55.708;37.522;2022-09-13T16:38:10;6.43;;;2.42;;
63286;SDS011;49410;55.708;37.522;2022-09-13T16:40:39;7.18;;;3.17;;
63286;SDS011;49410;55.708;37.522;2022-09-13T16:43:06;7.38;;;2.83;;
63286;SDS011;49410;55.708;37.522;2022-09-13T16:45:32;6.13;;;2.90;;
63286;SDS011;49410;55.708;37.522;2022-09-13T16:47:58;6.30;;;2.90;;
63286;SDS011;49410;55.708;37.522;2022-09-13T16:50:23;10.00;;;2.60;;
63286;SDS011;49410;55.708;37.522;2022-09-13T16:52:49;7.47;;;2.88;;
63286;SDS011;49410;55.708;37.522;2022-09-13T16:55:14;6.85;;;2.72;;
63286;SDS011;49410;55.708;37.522;2022-09-13T16:57:40;5.88;;;2.80;;
63286;SDS011;49410;55.708;37.522;2022-09-13T17:00:06;6.97;;;2.90;;
63286;SDS011;49410;55.708;37.522;2022-09-13T17:02:35;8.00;;;3.67;;
63286;SDS011;49410;55.708;37.522;2022-09-13T17:05:00;6.60;;;3.03;;
63286;SDS011;49410;55.708;37.522;2022-09-13T17:07:26;7.80;;;3.10;;
63286;SDS011;49410;55.708;37.522;2022-09-13T17:09:51;6.70;;;3.00;;
63286;SDS011;49410;55.708;37.522;2022-09-13T17:12:17;7.18;;;3.17;;
63286;SDS011;49410;55.708;37.522;2022-09-13T17:14:43;7.55;;;3.28;;
63286;SDS011;49410;55.708;37.522;2022-09-13T17:17:12;7.47;;;3.45;;
63286;SDS011;49410;55.708;37.522;2022-09-13T17:19:43;7.45;;;3.35;;
63286;SDS011;49410;55.708;37.522;2022-09-13T17:22:09;6.47;;;3.13;;
63286;SDS011;49410;55.708;37.522;2022-09-13T17:24:35;6.60;;;3.30;;
63286;SDS011;49410;55.708;37.522;2022-09-13T17:27:02;12.23;;;3.20;;
63286;SDS011;49410;55.708;37.522;2022-09-13T17:29:30;7.05;;;3.53;;
63286;SDS011;49410;55.708;37.522;2022-09-13T17:31:57;8.88;;;3.40;;
63286;SDS011;49410;55.708;37.522;2022-09-13T17:34:24;7.18;;;3.28;;
63286;SDS011;49410;55.708;37.522;2022-09-13T17:36:49;6.82;;;3.38;;
63286;SDS011;49410;55.708;37.522;2022-09-13T17:39:16;6.95;;;3.45;;
63286;SDS011;49410;55.708;37.522;2022-09-13T17:41:42;8.15;;;3.35;;
63286;SDS011;49410;55.708;37.522;2022-09-13T17:44:07;7.80;;;3.30;;
63286;SDS011;49410;55.708;37.522;2022-09-13T17:46:33;10.07;;;3.47;;
63286;SDS011;49410;55.708;37.522;2022-09-13T17:48:59;12.25;;;3.88;;
63286;SDS011;49410;55.708;37.522;2022-09-13T17:51:25;8.35;;;3.45;;
63286;SDS011;49410;55.708;37.522;2022-09-13T17:53:56;7.85;;;3.33;;
63286;SDS011;49410;55.708;37.522;2022-09-13T17:56:28;7.07;;;3.30;;
63286;SDS011;49410;55.708;37.522;2022-09-13T17:59:15;6.78;;;3.10;;
63286;SDS011;49410;55.708;37.522;2022-09-13T18:01:44;6.60;;;3.38;;
63286;SDS011;49410;55.708;37.522;2022-09-13T18:04:37;11.00;;;3.88;;
63286;SDS011;49410;55.708;37.522;2022-09-13T18:07:03;7.50;;;3.20;;
63286;SDS011;49410;55.708;37.522;2022-09-13T18:09:29;8.05;;;3.70;;
63286;SDS011;49410;55.708;37.522;2022-09-13T18:11:54;8.38;;;4.13;;
63286;SDS011;49410;55.708;37.522;2022-09-13T18:14:20;8.60;;;3.40;;
63286;SDS011;49410;55.708;37.522;2022-09-13T18:16:47;7.95;;;3.58;;
63286;SDS011;49410;55.708;37.522;2022-09-13T18:19:20;8.90;;;3.30;;
63286;SDS011;49410;55.708;37.522;2022-09-13T18:21:47;6.90;;;3.28;;
63286;SDS011;49410;55.708;37.522;2022-09-13T18:24:13;6.25;;;3.10;;
63286;SDS011;49410;55.708;37.522;2022-09-13T18:26:38;8.95;;;3.75;;
63286;SDS011;49410;55.708;37.522;2022-09-13T18:29:06;7.63;;;3.65;;
63286;SDS011;49410;55.708;37.522;2022-09-13T18:31:36;6.85;;;3.55;;
63286;SDS011;49410;55.708;37.522;2022-09-13T18:34:04;7.38;;;4.03;;
63286;SDS011;49410;55.708;37.522;2022-09-13T18:36:33;8.50;;;3.65;;
63286;SDS011;49410;55.708;37.522;2022-09-13T18:39:00;7.40;;;3.70;;
63286;SDS011;49410;55.708;37.522;2022-09-13T18:41:35;7.55;;;3.90;;
63286;SDS011;49410;55.708;37.522;2022-09-13T18:44:04;7.13;;;3.47;;
63286;SDS011;49410;55.708;37.522;2022-09-13T18:46:30;7.85;;;3.78;;
63286;SDS011;49410;55.708;37.522;2022-09-13T18:48:57;7.55;;;3.90;;
63286;SDS011;49410;55.708;37.522;2022-09-13T18:51:24;12.73;;;4.15;;
63286;SDS011;49410;55.708;37.522;2022-09-13T18:53:54;8.45;;;3.63;;
63286;SDS011;49410;55.708;37.522;2022-09-13T18:56:20;8.90;;;4.10;;
63286;SDS011;49410;55.708;37.522;2022-09-13T18:58:49;9.57;;;4.07;;
63286;SDS011;49410;55.708;37.522;2022-09-13T19:01:20;8.88;;;4.25;;